createdAt,value
2023-09-29T00:00:18.974Z,15.80
2023-09-29T00:02:48.631Z,15.80
2023-09-29T00:05:18.933Z,15.70
2023-09-29T00:07:46.478Z,15.70
2023-09-29T00:10:18.528Z,15.70
2023-09-29T00:12:47.103Z,15.70
2023-09-29T00:15:14.128Z,15.60
2023-09-29T00:17:42.266Z,15.60
2023-09-29T00:20:22.709Z,15.60
2023-09-29T00:22:51.595Z,15.60
2023-09-29T00:25:19.955Z,15.50
2023-09-29T00:27:48.089Z,15.50
2023-09-29T00:30:18.951Z,15.40
2023-09-29T00:32:50.379Z,15.50
2023-09-29T00:35:26.310Z,15.40
2023-09-29T00:37:59.459Z,15.40
2023-09-29T00:40:28.641Z,15.40
2023-09-29T00:42:56.406Z,15.30
2023-09-29T00:45:25.217Z,15.20
2023-09-29T00:47:58.553Z,15.20
2023-09-29T00:50:31.213Z,15.20
2023-09-29T00:53:01.292Z,15.30
2023-09-29T00:55:31.470Z,15.30
2023-09-29T00:58:00.446Z,15.30
2023-09-29T01:00:34.174Z,15.30
2023-09-29T01:03:07.239Z,15.30
2023-09-29T01:05:45.863Z,15.30
2023-09-29T01:08:19.100Z,15.20
2023-09-29T01:10:45.834Z,15.20
2023-09-29T01:13:13.843Z,15.20
2023-09-29T01:15:41.006Z,15.20
2023-09-29T01:18:10.714Z,15.30
2023-09-29T01:20:39.093Z,15.20
2023-09-29T01:25:33.493Z,15.30
2023-09-29T01:28:02.705Z,15.30
2023-09-29T01:30:29.458Z,15.30
2023-09-29T01:33:00.387Z,15.30
2023-09-29T01:35:28.669Z,15.30
2023-09-29T01:37:57.116Z,15.40
2023-09-29T01:40:24.411Z,15.40
2023-09-29T01:42:52.555Z,15.50
2023-09-29T01:45:20.174Z,15.40
2023-09-29T01:47:48.497Z,15.40
2023-09-29T01:50:17.844Z,15.40
2023-09-29T01:52:45.934Z,15.40
2023-09-29T01:55:17.845Z,15.40
2023-09-29T01:57:44.941Z,15.40
2023-09-29T02:00:16.002Z,15.40
2023-09-29T02:02:45.013Z,15.40
2023-09-29T02:05:12.949Z,15.50
2023-09-29T02:07:41.977Z,15.40
2023-09-29T02:10:09.288Z,15.50
2023-09-29T02:12:43.136Z,15.50
2023-09-29T02:15:10.249Z,15.50
2023-09-29T02:17:38.022Z,15.50
2023-09-29T02:20:13.112Z,15.60
2023-09-29T02:22:40.734Z,15.60
2023-09-29T02:25:10.727Z,15.60
2023-09-29T02:27:38.000Z,15.60
2023-09-29T02:30:05.705Z,15.50
2023-09-29T02:32:32.514Z,15.60
2023-09-29T02:34:59.332Z,15.60
2023-09-29T02:37:26.371Z,15.60
2023-09-29T02:39:53.162Z,15.70
2023-09-29T02:42:19.827Z,15.70
2023-09-29T02:44:47.385Z,15.70
2023-09-29T02:47:15.812Z,15.70
2023-09-29T02:49:42.677Z,15.60
2023-09-29T02:52:09.445Z,15.60
2023-09-29T02:54:36.707Z,15.60
2023-09-29T02:57:04.013Z,15.60
2023-09-29T02:59:34.932Z,15.60
2023-09-29T03:02:06.966Z,15.70
2023-09-29T03:04:34.000Z,15.60
2023-09-29T03:07:01.061Z,15.60
2023-09-29T03:09:30.139Z,15.60
2023-09-29T03:12:00.725Z,15.60
2023-09-29T03:14:27.997Z,15.60
2023-09-29T03:16:55.174Z,15.60
2023-09-29T03:19:22.550Z,15.60
2023-09-29T03:21:49.715Z,15.60
2023-09-29T03:24:16.898Z,15.70
2023-09-29T03:26:45.993Z,15.70
2023-09-29T03:29:12.725Z,15.70
2023-09-29T03:31:40.337Z,15.70
2023-09-29T03:34:07.980Z,15.70
2023-09-29T03:36:34.896Z,15.70
2023-09-29T03:39:06.181Z,15.70
2023-09-29T03:41:34.388Z,15.80
2023-09-29T03:44:01.579Z,15.70
2023-09-29T03:46:30.284Z,15.70
2023-09-29T03:48:57.416Z,15.70
2023-09-29T03:51:25.267Z,15.60
2023-09-29T03:53:53.886Z,15.60
2023-09-29T03:56:24.164Z,15.50
2023-09-29T03:58:57.320Z,15.50
2023-09-29T04:01:24.340Z,15.40
2023-09-29T04:03:51.175Z,15.50
2023-09-29T04:06:18.073Z,15.50
2023-09-29T04:08:44.990Z,15.40
2023-09-29T04:11:11.919Z,15.40
2023-09-29T04:13:38.783Z,15.50
2023-09-29T04:16:06.601Z,15.50
2023-09-29T04:18:33.850Z,15.50
2023-09-29T04:21:05.207Z,15.50
2023-09-29T04:23:32.696Z,15.50
2023-09-29T04:25:59.590Z,15.50
2023-09-29T04:28:26.688Z,15.50
2023-09-29T04:30:53.456Z,15.50
2023-09-29T04:33:20.266Z,15.50
2023-09-29T04:35:47.095Z,15.50
2023-09-29T04:38:13.826Z,15.50
2023-09-29T04:40:41.077Z,15.50
2023-09-29T04:43:07.864Z,15.50
2023-09-29T04:45:35.199Z,15.50
2023-09-29T04:48:03.245Z,15.50
2023-09-29T04:50:30.606Z,15.40
2023-09-29T04:52:57.910Z,15.40
2023-09-29T04:55:24.652Z,15.40
2023-09-29T04:57:53.651Z,15.30
2023-09-29T05:00:20.827Z,15.30
2023-09-29T05:02:48.006Z,15.20
2023-09-29T05:05:15.074Z,15.20
2023-09-29T05:07:44.491Z,15.20
2023-09-29T05:10:12.444Z,15.20
2023-09-29T05:12:39.331Z,15.20
2023-09-29T05:15:06.786Z,15.20
2023-09-29T05:17:44.877Z,15.20
2023-09-29T05:20:15.504Z,15.20
2023-09-29T05:22:42.247Z,15.20
2023-09-29T05:25:09.931Z,15.30
2023-09-29T05:27:36.760Z,15.30
2023-09-29T05:30:04.356Z,15.40
2023-09-29T05:32:32.453Z,15.40
2023-09-29T05:34:59.589Z,15.40
2023-09-29T05:37:26.404Z,15.40
2023-09-29T05:39:53.908Z,15.50
2023-09-29T05:42:30.361Z,15.50
2023-09-29T05:45:00.690Z,15.50
2023-09-29T05:47:27.674Z,15.50
2023-09-29T05:50:03.367Z,15.50
2023-09-29T05:52:33.830Z,15.50
2023-09-29T05:55:00.488Z,15.60
2023-09-29T05:57:28.718Z,15.60
2023-09-29T05:59:56.061Z,15.70
2023-09-29T06:02:22.917Z,15.70
2023-09-29T06:04:49.655Z,15.80
2023-09-29T06:07:16.333Z,15.90
2023-09-29T06:09:43.017Z,15.90
2023-09-29T06:12:09.749Z,15.70
2023-09-29T06:14:36.833Z,15.70
2023-09-29T06:17:03.534Z,15.70
2023-09-29T06:19:30.295Z,15.80
2023-09-29T06:21:57.266Z,15.80
2023-09-29T06:24:24.029Z,16.00
2023-09-29T06:26:51.429Z,16.10
2023-09-29T06:29:18.234Z,16.00
2023-09-29T06:31:45.440Z,16.00
2023-09-29T06:34:12.113Z,16.10
2023-09-29T06:36:39.736Z,16.20
2023-09-29T06:39:06.579Z,16.40
2023-09-29T06:41:33.597Z,16.60
2023-09-29T06:44:00.290Z,16.70
2023-09-29T06:46:27.039Z,16.70
2023-09-29T06:48:54.332Z,16.80
2023-09-29T06:51:21.118Z,16.80
2023-09-29T06:53:49.543Z,16.90
2023-09-29T06:56:17.576Z,17.00
2023-09-29T06:58:44.303Z,17.20
2023-09-29T07:01:10.984Z,17.30
2023-09-29T07:03:37.879Z,17.50
2023-09-29T07:06:04.796Z,17.60
2023-09-29T07:08:31.633Z,17.70
2023-09-29T07:10:58.741Z,17.90
2023-09-29T07:13:25.530Z,18.00
2023-09-29T07:15:52.226Z,18.10
2023-09-29T07:18:19.075Z,18.30
2023-09-29T07:20:46.573Z,18.40
2023-09-29T07:23:13.371Z,18.50
2023-09-29T07:25:40.697Z,18.70
2023-09-29T07:28:14.732Z,19.00
2023-09-29T07:30:45.744Z,19.20
2023-09-29T07:33:13.054Z,19.30
2023-09-29T07:35:40.306Z,19.50
2023-09-29T07:38:07.448Z,19.50
2023-09-29T07:40:35.937Z,19.50
2023-09-29T07:43:03.411Z,19.50
2023-09-29T07:45:30.095Z,19.40
2023-09-29T07:47:56.912Z,19.40
2023-09-29T07:50:24.136Z,19.30
2023-09-29T07:52:50.865Z,19.30
2023-09-29T07:55:17.631Z,19.40
2023-09-29T07:57:44.373Z,19.50
2023-09-29T08:00:13.037Z,19.60
2023-09-29T08:02:40.606Z,19.50
2023-09-29T08:05:10.598Z,19.60
2023-09-29T08:07:37.416Z,19.60
2023-09-29T08:10:04.285Z,19.70
2023-09-29T08:12:30.970Z,19.70
2023-09-29T08:14:57.773Z,19.70
2023-09-29T08:17:27.041Z,19.90
2023-09-29T08:19:53.758Z,20.10
2023-09-29T08:22:26.477Z,20.30
2023-09-29T08:25:08.898Z,20.20
2023-09-29T08:27:36.951Z,20.20
2023-09-29T08:30:05.631Z,20.30
2023-09-29T08:32:32.756Z,20.60
2023-09-29T08:34:59.614Z,20.70
2023-09-29T08:37:26.402Z,20.80
2023-09-29T08:39:54.531Z,21.00
2023-09-29T08:42:39.098Z,21.00
2023-09-29T08:45:10.931Z,21.10
2023-09-29T08:47:39.243Z,21.20
2023-09-29T08:50:10.461Z,21.20
2023-09-29T08:52:37.988Z,21.20
2023-09-29T08:55:05.166Z,21.30
2023-09-29T08:57:32.070Z,21.70
2023-09-29T09:00:01.477Z,21.60
2023-09-29T09:02:28.672Z,21.70
2023-09-29T09:04:55.794Z,21.80
2023-09-29T09:07:22.974Z,21.80
2023-09-29T09:09:51.207Z,22.00
2023-09-29T09:12:18.406Z,22.00
2023-09-29T09:14:46.139Z,22.00
2023-09-29T09:17:13.165Z,22.10
2023-09-29T09:19:52.131Z,22.20
2023-09-29T09:22:35.030Z,22.30
2023-09-29T09:25:12.368Z,22.20
2023-09-29T09:27:44.615Z,22.30
2023-09-29T09:30:30.098Z,22.40
2023-09-29T09:32:56.980Z,22.30
2023-09-29T09:35:28.917Z,22.40
2023-09-29T09:37:57.216Z,22.50
2023-09-29T09:40:27.442Z,22.60
2023-09-29T09:42:55.062Z,22.90
2023-09-29T09:45:26.458Z,22.90
2023-09-29T09:48:00.478Z,22.90
2023-09-29T09:50:31.820Z,23.00
2023-09-29T09:53:00.812Z,23.20
2023-09-29T09:55:51.633Z,23.20
2023-09-29T09:58:22.120Z,23.10
2023-09-29T10:00:51.543Z,23.10
2023-09-29T10:03:18.894Z,23.10
2023-09-29T10:05:53.003Z,23.30
2023-09-29T10:08:34.284Z,23.50
2023-09-29T10:11:15.586Z,23.60
2023-09-29T10:13:46.564Z,23.90
2023-09-29T10:16:24.410Z,24.20
2023-09-29T10:19:07.189Z,24.10
2023-09-29T10:21:44.086Z,24.20
2023-09-29T10:24:14.350Z,24.20
2023-09-29T10:26:46.185Z,24.00
2023-09-29T10:29:20.842Z,24.30
2023-09-29T10:31:49.917Z,24.50
2023-09-29T10:34:22.265Z,24.80
2023-09-29T10:36:56.679Z,24.90
2023-09-29T10:39:27.789Z,25.10
2023-09-29T10:42:13.888Z,24.90
2023-09-29T10:44:49.918Z,24.80
2023-09-29T10:47:17.891Z,24.90
2023-09-29T10:49:47.970Z,24.80
2023-09-29T10:52:23.873Z,25.00
2023-09-29T10:54:57.691Z,24.90
2023-09-29T10:57:26.222Z,24.90
2023-09-29T11:00:00.359Z,24.90
2023-09-29T11:02:37.815Z,24.40
2023-09-29T11:05:07.260Z,24.20
2023-09-29T11:07:51.702Z,24.00
2023-09-29T11:10:19.758Z,23.90
2023-09-29T11:12:50.092Z,23.90
2023-09-29T11:15:18.540Z,23.80
2023-09-29T11:17:50.501Z,24.00
2023-09-29T11:20:28.182Z,23.90
2023-09-29T11:23:00.748Z,23.70
2023-09-29T11:25:27.678Z,23.50
2023-09-29T11:27:54.423Z,23.30
2023-09-29T11:30:26.061Z,23.20
2023-09-29T11:32:53.896Z,23.00
2023-09-29T11:35:22.445Z,23.10
2023-09-29T11:37:49.135Z,22.90
2023-09-29T11:40:17.922Z,22.90
2023-09-29T11:42:46.320Z,22.70
2023-09-29T11:45:13.446Z,22.30
2023-09-29T11:47:41.855Z,22.10
2023-09-29T11:50:10.052Z,22.00
2023-09-29T11:52:40.701Z,22.20
2023-09-29T11:55:12.626Z,22.40
2023-09-29T11:57:42.483Z,22.40
2023-09-29T12:00:14.437Z,22.40
2023-09-29T12:02:41.741Z,22.40
2023-09-29T12:05:10.325Z,22.40
2023-09-29T12:07:36.990Z,22.40
2023-09-29T12:10:04.032Z,22.30
2023-09-29T12:12:33.207Z,22.30
2023-09-29T12:15:01.000Z,22.20
2023-09-29T12:17:27.879Z,22.20
2023-09-29T12:19:55.120Z,22.20
2023-09-29T12:22:21.961Z,22.20
2023-09-29T12:24:49.145Z,22.20
2023-09-29T12:27:15.929Z,22.10
2023-09-29T12:29:42.712Z,22.00
2023-09-29T12:32:09.543Z,22.00
2023-09-29T12:34:36.343Z,22.10
2023-09-29T12:37:03.361Z,22.20
2023-09-29T12:39:30.083Z,22.40
2023-09-29T12:41:56.876Z,22.50
2023-09-29T12:44:24.156Z,22.50
2023-09-29T12:46:53.640Z,22.60
2023-09-29T12:49:21.792Z,22.50
2023-09-29T12:51:59.920Z,22.40
2023-09-29T12:54:28.173Z,22.50
2023-09-29T12:57:02.257Z,22.70
2023-09-29T12:59:30.793Z,22.80
2023-09-29T13:01:57.572Z,23.00
2023-09-29T13:04:27.648Z,22.80
2023-09-29T13:06:54.354Z,22.50
2023-09-29T13:09:22.008Z,22.30
2023-09-29T13:11:52.120Z,22.20
2023-09-29T13:14:19.285Z,22.20
2023-09-29T13:16:46.161Z,21.90
2023-09-29T13:19:12.956Z,21.90
2023-09-29T13:21:40.702Z,22.00
2023-09-29T13:24:07.979Z,22.00
2023-09-29T13:26:34.828Z,22.00
2023-09-29T13:29:01.892Z,22.00
2023-09-29T13:31:28.596Z,22.40
2023-09-29T13:33:55.876Z,22.30
2023-09-29T13:36:22.893Z,22.00
2023-09-29T13:38:49.736Z,21.90
2023-09-29T13:41:16.507Z,21.90
2023-09-29T13:43:44.362Z,21.90
2023-09-29T13:46:11.151Z,22.00
2023-09-29T13:48:38.644Z,22.00
2023-09-29T13:51:07.464Z,22.00
2023-09-29T13:53:35.054Z,22.00
2023-09-29T13:56:06.045Z,22.10
2023-09-29T13:58:33.154Z,22.30
2023-09-29T14:01:00.267Z,22.40
2023-09-29T14:03:27.115Z,22.50
2023-09-29T14:05:53.930Z,22.50
2023-09-29T14:08:20.912Z,22.30
2023-09-29T14:10:48.306Z,22.00
2023-09-29T14:13:15.037Z,21.80
2023-09-29T14:15:41.706Z,22.00
2023-09-29T14:18:08.568Z,22.00
2023-09-29T14:20:36.775Z,21.90
2023-09-29T14:23:04.344Z,22.10
2023-09-29T14:25:31.215Z,22.20
2023-09-29T14:27:58.057Z,22.20
2023-09-29T14:30:25.576Z,22.30
2023-09-29T14:32:52.941Z,22.20
2023-09-29T14:35:19.706Z,22.10
2023-09-29T14:37:48.084Z,22.00
2023-09-29T14:40:15.050Z,21.80
2023-09-29T14:42:41.832Z,21.70
2023-09-29T14:45:10.378Z,21.90
2023-09-29T14:47:37.248Z,21.80
2023-09-29T14:50:04.498Z,22.00
2023-09-29T14:52:31.300Z,21.80
2023-09-29T14:54:59.807Z,21.90
2023-09-29T14:57:26.682Z,22.00
2023-09-29T14:59:53.433Z,22.10
2023-09-29T15:02:20.135Z,22.20
2023-09-29T15:07:18.402Z,22.20
2023-09-29T15:09:45.238Z,22.00
2023-09-29T15:12:11.950Z,21.90
2023-09-29T15:14:38.727Z,21.80
2023-09-29T15:17:05.543Z,21.80
2023-09-29T15:19:32.397Z,21.80
2023-09-29T15:21:59.138Z,22.00
2023-09-29T15:24:25.911Z,22.00
2023-09-29T15:26:53.588Z,21.90
2023-09-29T15:29:21.383Z,22.00
2023-09-29T15:31:49.142Z,22.00
2023-09-29T15:34:15.972Z,22.00
2023-09-29T15:36:42.676Z,22.00
2023-09-29T15:39:13.371Z,21.90
2023-09-29T15:41:40.946Z,21.70
2023-09-29T15:44:07.905Z,21.60
2023-09-29T15:46:34.659Z,21.50
2023-09-29T15:49:01.338Z,21.30
2023-09-29T15:51:28.077Z,21.30
2023-09-29T15:53:54.994Z,21.30
2023-09-29T15:56:21.888Z,21.40
2023-09-29T15:58:48.555Z,21.30
2023-09-29T16:01:15.421Z,21.10
2023-09-29T16:03:43.157Z,20.90
2023-09-29T16:06:10.050Z,20.80
2023-09-29T16:08:41.911Z,20.90
2023-09-29T16:11:08.737Z,20.90
2023-09-29T16:13:36.417Z,20.80
2023-09-29T16:16:04.613Z,20.80
2023-09-29T16:18:32.298Z,20.80
2023-09-29T16:21:03.716Z,20.80
2023-09-29T16:23:30.510Z,20.80
2023-09-29T16:25:57.287Z,20.80
2023-09-29T16:28:24.135Z,20.50
2023-09-29T16:30:51.952Z,20.30
2023-09-29T16:33:19.102Z,20.40
2023-09-29T16:35:45.904Z,20.60
2023-09-29T16:38:12.590Z,20.60
2023-09-29T16:40:39.712Z,20.60
2023-09-29T16:43:06.474Z,20.40
2023-09-29T16:45:33.315Z,20.40
2023-09-29T16:48:00.179Z,20.30
2023-09-29T16:50:27.238Z,20.30
2023-09-29T16:52:54.291Z,20.20
2023-09-29T16:55:21.016Z,20.20
2023-09-29T16:57:47.709Z,20.10
2023-09-29T17:00:15.759Z,20.10
2023-09-29T17:02:42.807Z,20.10
2023-09-29T17:05:09.985Z,20.00
2023-09-29T17:07:36.687Z,19.80
2023-09-29T17:10:05.009Z,19.70
2023-09-29T17:12:32.792Z,19.70
2023-09-29T17:15:01.429Z,19.80
2023-09-29T17:17:28.383Z,19.80
2023-09-29T17:19:55.130Z,19.70
2023-09-29T17:22:22.244Z,19.70
2023-09-29T17:24:48.961Z,19.70
2023-09-29T17:27:15.721Z,19.70
2023-09-29T17:29:42.469Z,19.60
2023-09-29T17:32:10.285Z,19.60
2023-09-29T17:34:37.719Z,19.40
2023-09-29T17:37:04.916Z,19.40
2023-09-29T17:39:31.891Z,19.40
2023-09-29T17:42:00.198Z,19.50
2023-09-29T17:44:26.941Z,19.50
2023-09-29T17:46:53.626Z,19.50
2023-09-29T17:49:20.497Z,19.50
2023-09-29T17:51:47.376Z,19.40
2023-09-29T17:54:14.558Z,19.40
2023-09-29T17:56:41.316Z,19.30
2023-09-29T17:59:08.038Z,19.50
2023-09-29T18:01:34.751Z,19.40
2023-09-29T18:04:01.672Z,19.50
2023-09-29T18:06:30.377Z,19.40
2023-09-29T18:08:57.705Z,19.40
2023-09-29T18:11:24.868Z,19.40
2023-09-29T18:13:51.831Z,19.40
2023-09-29T18:16:18.632Z,19.40
2023-09-29T18:18:46.609Z,19.30
2023-09-29T18:21:13.482Z,19.30
2023-09-29T18:23:40.466Z,19.30
2023-09-29T18:26:07.844Z,19.30
2023-09-29T18:28:35.456Z,19.20
2023-09-29T18:31:02.329Z,19.10
2023-09-29T18:33:29.274Z,19.10
2023-09-29T18:35:56.121Z,19.00
2023-09-29T18:38:22.891Z,19.00
2023-09-29T18:40:49.761Z,19.00
2023-09-29T18:43:16.433Z,18.90
2023-09-29T18:45:43.125Z,18.80
2023-09-29T18:48:10.379Z,18.70
2023-09-29T18:50:38.338Z,18.80
2023-09-29T18:53:06.432Z,18.90
2023-09-29T18:55:34.785Z,18.90
2023-09-29T18:58:01.859Z,19.00
2023-09-29T19:00:33.042Z,19.10
2023-09-29T19:03:00.389Z,19.10
2023-09-29T19:05:27.910Z,19.10
2023-09-29T19:07:54.695Z,19.20
2023-09-29T19:10:21.832Z,19.00
2023-09-29T19:12:48.754Z,19.00
2023-09-29T19:15:15.554Z,18.90
2023-09-29T19:17:42.484Z,18.70
2023-09-29T19:20:09.434Z,18.80
2023-09-29T19:22:36.201Z,18.80
2023-09-29T19:25:03.367Z,18.80
2023-09-29T19:27:30.595Z,18.80
2023-09-29T19:30:01.326Z,18.70
2023-09-29T19:32:29.658Z,18.70
2023-09-29T19:34:57.607Z,18.80
2023-09-29T19:37:24.369Z,18.70
2023-09-29T19:39:51.448Z,18.70
2023-09-29T19:42:22.659Z,18.70
2023-09-29T19:44:50.149Z,18.70
2023-09-29T19:47:16.904Z,18.70
2023-09-29T19:49:43.610Z,18.70
2023-09-29T19:52:10.849Z,18.60
2023-09-29T19:54:42.074Z,18.60
2023-09-29T19:57:08.837Z,18.60
2023-09-29T19:59:35.635Z,18.60
2023-09-29T20:02:03.779Z,18.50
2023-09-29T20:04:31.054Z,18.60
2023-09-29T20:06:59.523Z,18.60
2023-09-29T20:09:26.549Z,18.60
2023-09-29T20:11:54.144Z,18.60
2023-09-29T20:14:21.064Z,18.50
2023-09-29T20:16:48.051Z,18.60
2023-09-29T20:19:15.015Z,18.70
2023-09-29T20:21:42.280Z,18.70
2023-09-29T20:24:10.457Z,18.70
2023-09-29T20:26:38.656Z,18.70
2023-09-29T20:29:05.453Z,18.70
2023-09-29T20:31:32.815Z,18.70
2023-09-29T20:34:00.670Z,18.60
2023-09-29T20:36:30.445Z,18.50
2023-09-29T20:39:02.368Z,18.40
2023-09-29T20:41:29.147Z,18.50
2023-09-29T20:43:57.158Z,18.40
2023-09-29T20:46:24.140Z,18.20
2023-09-29T20:48:51.240Z,18.10
2023-09-29T20:51:18.072Z,18.10
2023-09-29T20:53:44.827Z,18.10
2023-09-29T20:56:12.525Z,18.10
2023-09-29T20:58:39.520Z,18.00
2023-09-29T21:01:06.581Z,17.80
2023-09-29T21:03:35.398Z,17.80
2023-09-29T21:06:02.482Z,17.80
2023-09-29T21:08:29.222Z,17.50
2023-09-29T21:10:57.564Z,17.50
2023-09-29T21:13:24.384Z,17.50
2023-09-29T21:15:53.958Z,17.60
2023-09-29T21:18:22.227Z,17.60
2023-09-29T21:20:53.866Z,17.60
2023-09-29T21:23:20.588Z,17.60
2023-09-29T21:25:48.177Z,17.50
2023-09-29T21:28:14.956Z,17.50
2023-09-29T21:30:44.937Z,17.50
2023-09-29T21:33:12.134Z,17.40
2023-09-29T21:35:39.165Z,17.30
2023-09-29T21:38:06.719Z,17.10
2023-09-29T21:40:34.240Z,17.10
2023-09-29T21:43:00.949Z,17.10
2023-09-29T21:45:28.000Z,17.00
2023-09-29T21:47:54.828Z,17.00
2023-09-29T21:50:22.745Z,16.90
2023-09-29T21:52:49.624Z,16.80
2023-09-29T21:55:16.365Z,16.80
2023-09-29T21:57:43.240Z,16.70
2023-09-29T22:00:16.641Z,16.80
2023-09-29T22:02:43.692Z,16.80
2023-09-29T22:05:16.878Z,16.70
2023-09-29T22:07:43.872Z,16.50
2023-09-29T22:10:15.304Z,16.50
2023-09-29T22:12:43.756Z,16.50
2023-09-29T22:15:12.989Z,16.50
2023-09-29T22:17:39.856Z,16.40
2023-09-29T22:20:10.303Z,16.30
2023-09-29T22:22:37.074Z,16.20
2023-09-29T22:25:04.218Z,16.20
2023-09-29T22:27:32.698Z,16.30
2023-09-29T22:30:02.760Z,16.20
2023-09-29T22:32:29.535Z,16.40
2023-09-29T22:34:56.216Z,16.30
2023-09-29T22:37:24.005Z,16.20
2023-09-29T22:39:52.808Z,16.20
2023-09-29T22:42:19.764Z,16.20
2023-09-29T22:44:47.745Z,16.30
2023-09-29T22:47:14.674Z,16.20
2023-09-29T22:49:42.139Z,16.10
2023-09-29T22:52:10.643Z,16.10
2023-09-29T22:54:38.003Z,16.00
2023-09-29T22:57:05.971Z,16.10
2023-09-29T22:59:33.310Z,16.10
2023-09-29T23:02:00.839Z,16.10
2023-09-29T23:04:27.869Z,16.20
2023-09-29T23:06:55.354Z,16.30
2023-09-29T23:09:26.034Z,16.30
2023-09-29T23:11:52.890Z,16.30
2023-09-29T23:14:19.835Z,16.30
2023-09-29T23:16:46.568Z,16.30
2023-09-29T23:19:14.526Z,16.30
2023-09-29T23:21:41.945Z,16.40
2023-09-29T23:24:08.794Z,16.40
2023-09-29T23:26:35.508Z,16.50
2023-09-29T23:29:02.278Z,16.50
2023-09-29T23:31:29.028Z,16.50
2023-09-29T23:33:57.028Z,16.60
2023-09-29T23:36:25.132Z,16.60
2023-09-29T23:38:53.463Z,16.70
2023-09-29T23:41:21.240Z,16.70
2023-09-29T23:43:48.300Z,16.70
2023-09-29T23:46:16.948Z,16.70
2023-09-29T23:48:44.658Z,16.70
2023-09-29T23:51:12.309Z,16.70
2023-09-29T23:53:40.606Z,16.50
2023-09-29T23:56:11.042Z,16.50
2023-09-29T23:58:38.293Z,16.60
